sensor_id;sensor_type;location;lat;lon;timestamp;P1;durP1;ratioP1;P2;durP2;ratioP2
84113;SDS011;74483;48.846;2.358;2023-12-20T00:02:16;0.68;;;0.60;;
84113;SDS011;74483;48.846;2.358;2023-12-20T00:04:42;0.52;;;0.52;;
84113;SDS011;74483;48.846;2.358;2023-12-20T00:07:08;0.70;;;0.63;;
84113;SDS011;74483;48.846;2.358;2023-12-20T00:09:33;0.65;;;0.50;;
84113;SDS011;74483;48.846;2.358;2023-12-20T00:11:59;0.50;;;0.50;;
84113;SDS011;74483;48.846;2.358;2023-12-20T00:14:25;0.70;;;0.70;;
84113;SDS011;74483;48.846;2.358;2023-12-20T00:16:50;0.50;;;0.50;;
84113;SDS011;74483;48.846;2.358;2023-12-20T00:19:16;0.52;;;0.50;;
84113;SDS011;74483;48.846;2.358;2023-12-20T00:21:42;0.95;;;0.50;;
84113;SDS011;74483;48.846;2.358;2023-12-20T00:24:07;0.50;;;0.50;;
84113;SDS011;74483;48.846;2.358;2023-12-20T00:26:33;0.63;;;0.50;;
84113;SDS011;74483;48.846;2.358;2023-12-20T00:28:59;0.88;;;0.52;;
84113;SDS011;74483;48.846;2.358;2023-12-20T00:31:24;0.85;;;0.60;;
84113;SDS011;74483;48.846;2.358;2023-12-20T00:33:50;0.60;;;0.60;;
84113;SDS011;74483;48.846;2.358;2023-12-20T00:36:15;0.63;;;0.63;;
84113;SDS011;74483;48.846;2.358;2023-12-20T00:38:41;0.60;;;0.60;;
84113;SDS011;74483;48.846;2.358;2023-12-20T00:41:07;0.60;;;0.60;;
84113;SDS011;74483;48.846;2.358;2023-12-20T00:43:32;0.50;;;0.50;;
84113;SDS011;74483;48.846;2.358;2023-12-20T00:45:58;0.90;;;0.55;;
84113;SDS011;74483;48.846;2.358;2023-12-20T00:48:25;0.52;;;0.52;;
84113;SDS011;74483;48.846;2.358;2023-12-20T00:50:52;0.60;;;0.60;;
84113;SDS011;74483;48.846;2.358;2023-12-20T00:53:18;0.80;;;0.45;;
84113;SDS011;74483;48.846;2.358;2023-12-20T00:55:43;0.50;;;0.50;;
84113;SDS011;74483;48.846;2.358;2023-12-20T00:58:09;1.23;;;0.50;;
84113;SDS011;74483;48.846;2.358;2023-12-20T01:00:35;0.68;;;0.50;;
84113;SDS011;74483;48.846;2.358;2023-12-20T01:03:01;0.52;;;0.40;;
84113;SDS011;74483;48.846;2.358;2023-12-20T01:05:26;0.65;;;0.50;;
84113;SDS011;74483;48.846;2.358;2023-12-20T01:07:52;0.65;;;0.52;;
84113;SDS011;74483;48.846;2.358;2023-12-20T01:10:18;0.65;;;0.50;;
84113;SDS011;74483;48.846;2.358;2023-12-20T01:12:43;1.10;;;0.60;;
84113;SDS011;74483;48.846;2.358;2023-12-20T01:15:09;0.60;;;0.50;;
84113;SDS011;74483;48.846;2.358;2023-12-20T01:17:35;0.50;;;0.50;;
84113;SDS011;74483;48.846;2.358;2023-12-20T01:20:01;0.70;;;0.50;;
84113;SDS011;74483;48.846;2.358;2023-12-20T01:22:26;0.50;;;0.50;;
84113;SDS011;74483;48.846;2.358;2023-12-20T01:24:52;0.77;;;0.68;;
84113;SDS011;74483;48.846;2.358;2023-12-20T01:27:18;0.57;;;0.50;;
84113;SDS011;74483;48.846;2.358;2023-12-20T01:29:43;1.27;;;0.47;;
84113;SDS011;74483;48.846;2.358;2023-12-20T01:32:09;0.70;;;0.50;;
84113;SDS011;74483;48.846;2.358;2023-12-20T01:34:35;0.60;;;0.50;;
84113;SDS011;74483;48.846;2.358;2023-12-20T01:37:01;0.63;;;0.55;;
84113;SDS011;74483;48.846;2.358;2023-12-20T01:39:27;0.88;;;0.60;;
84113;SDS011;74483;48.846;2.358;2023-12-20T01:41:53;0.60;;;0.60;;
84113;SDS011;74483;48.846;2.358;2023-12-20T01:44:18;0.47;;;0.47;;
84113;SDS011;74483;48.846;2.358;2023-12-20T01:46:45;0.65;;;0.43;;
84113;SDS011;74483;48.846;2.358;2023-12-20T01:49:11;0.50;;;0.50;;
84113;SDS011;74483;48.846;2.358;2023-12-20T01:51:37;0.40;;;0.40;;
84113;SDS011;74483;48.846;2.358;2023-12-20T01:54:03;0.50;;;0.40;;
84113;SDS011;74483;48.846;2.358;2023-12-20T01:56:29;0.60;;;0.60;;
84113;SDS011;74483;48.846;2.358;2023-12-20T01:58:57;1.52;;;0.50;;
84113;SDS011;74483;48.846;2.358;2023-12-20T02:01:24;0.90;;;0.60;;
84113;SDS011;74483;48.846;2.358;2023-12-20T02:03:49;1.20;;;0.50;;
84113;SDS011;74483;48.846;2.358;2023-12-20T02:06:16;0.88;;;0.50;;
84113;SDS011;74483;48.846;2.358;2023-12-20T02:08:43;0.47;;;0.45;;
84113;SDS011;74483;48.846;2.358;2023-12-20T02:11:09;0.40;;;0.40;;
84113;SDS011;74483;48.846;2.358;2023-12-20T02:13:35;0.40;;;0.40;;
84113;SDS011;74483;48.846;2.358;2023-12-20T02:16:01;1.70;;;0.60;;
84113;SDS011;74483;48.846;2.358;2023-12-20T02:18:26;0.52;;;0.50;;
84113;SDS011;74483;48.846;2.358;2023-12-20T02:20:52;0.40;;;0.40;;
84113;SDS011;74483;48.846;2.358;2023-12-20T02:23:18;0.60;;;0.40;;
84113;SDS011;74483;48.846;2.358;2023-12-20T02:25:44;0.60;;;0.57;;
84113;SDS011;74483;48.846;2.358;2023-12-20T02:28:09;0.82;;;0.52;;
84113;SDS011;74483;48.846;2.358;2023-12-20T02:30:35;0.50;;;0.45;;
84113;SDS011;74483;48.846;2.358;2023-12-20T02:33:01;0.90;;;0.60;;
84113;SDS011;74483;48.846;2.358;2023-12-20T02:35:28;0.63;;;0.40;;
84113;SDS011;74483;48.846;2.358;2023-12-20T02:37:54;0.82;;;0.43;;
84113;SDS011;74483;48.846;2.358;2023-12-20T02:40:19;1.02;;;0.60;;
84113;SDS011;74483;48.846;2.358;2023-12-20T02:42:45;0.70;;;0.50;;
84113;SDS011;74483;48.846;2.358;2023-12-20T02:45:10;0.55;;;0.50;;
84113;SDS011;74483;48.846;2.358;2023-12-20T02:47:36;0.75;;;0.40;;
84113;SDS011;74483;48.846;2.358;2023-12-20T02:50:02;0.45;;;0.43;;
84113;SDS011;74483;48.846;2.358;2023-12-20T02:52:28;1.38;;;0.50;;
84113;SDS011;74483;48.846;2.358;2023-12-20T02:54:54;0.93;;;0.50;;
84113;SDS011;74483;48.846;2.358;2023-12-20T02:57:19;1.00;;;0.50;;
84113;SDS011;74483;48.846;2.358;2023-12-20T02:59:45;1.15;;;0.50;;
84113;SDS011;74483;48.846;2.358;2023-12-20T03:02:10;0.40;;;0.40;;
84113;SDS011;74483;48.846;2.358;2023-12-20T03:04:36;0.80;;;0.50;;
84113;SDS011;74483;48.846;2.358;2023-12-20T03:07:02;0.52;;;0.52;;
84113;SDS011;74483;48.846;2.358;2023-12-20T03:09:27;0.50;;;0.40;;
84113;SDS011;74483;48.846;2.358;2023-12-20T03:11:53;0.57;;;0.47;;
84113;SDS011;74483;48.846;2.358;2023-12-20T03:14:18;0.60;;;0.50;;
84113;SDS011;74483;48.846;2.358;2023-12-20T03:16:49;0.90;;;0.55;;
84113;SDS011;74483;48.846;2.358;2023-12-20T03:19:15;0.95;;;0.50;;
84113;SDS011;74483;48.846;2.358;2023-12-20T03:21:41;1.25;;;0.50;;
84113;SDS011;74483;48.846;2.358;2023-12-20T03:24:06;1.27;;;0.70;;
84113;SDS011;74483;48.846;2.358;2023-12-20T03:26:32;1.15;;;0.60;;
84113;SDS011;74483;48.846;2.358;2023-12-20T03:28:57;0.65;;;0.43;;
84113;SDS011;74483;48.846;2.358;2023-12-20T03:31:23;1.02;;;0.50;;
84113;SDS011;74483;48.846;2.358;2023-12-20T03:33:49;0.93;;;0.40;;
84113;SDS011;74483;48.846;2.358;2023-12-20T03:36:15;0.40;;;0.40;;
84113;SDS011;74483;48.846;2.358;2023-12-20T03:38:41;0.75;;;0.40;;
84113;SDS011;74483;48.846;2.358;2023-12-20T03:41:07;0.50;;;0.50;;
84113;SDS011;74483;48.846;2.358;2023-12-20T03:43:32;0.77;;;0.40;;
84113;SDS011;74483;48.846;2.358;2023-12-20T03:45:58;0.63;;;0.40;;
84113;SDS011;74483;48.846;2.358;2023-12-20T03:48:25;1.02;;;0.50;;
84113;SDS011;74483;48.846;2.358;2023-12-20T03:50:50;0.82;;;0.50;;
84113;SDS011;74483;48.846;2.358;2023-12-20T03:53:16;0.80;;;0.40;;
84113;SDS011;74483;48.846;2.358;2023-12-20T03:55:42;0.50;;;0.50;;
84113;SDS011;74483;48.846;2.358;2023-12-20T03:58:08;0.82;;;0.50;;
84113;SDS011;74483;48.846;2.358;2023-12-20T04:00:34;1.08;;;0.45;;
84113;SDS011;74483;48.846;2.358;2023-12-20T04:03:00;1.17;;;0.55;;
84113;SDS011;74483;48.846;2.358;2023-12-20T04:05:25;0.75;;;0.45;;
84113;SDS011;74483;48.846;2.358;2023-12-20T04:07:51;0.70;;;0.50;;
84113;SDS011;74483;48.846;2.358;2023-12-20T04:10:16;0.88;;;0.50;;
84113;SDS011;74483;48.846;2.358;2023-12-20T04:12:42;0.93;;;0.40;;
84113;SDS011;74483;48.846;2.358;2023-12-20T04:15:08;0.82;;;0.40;;
84113;SDS011;74483;48.846;2.358;2023-12-20T04:17:35;0.40;;;0.40;;
84113;SDS011;74483;48.846;2.358;2023-12-20T04:20:01;1.48;;;0.50;;
84113;SDS011;74483;48.846;2.358;2023-12-20T04:22:27;0.90;;;0.50;;
84113;SDS011;74483;48.846;2.358;2023-12-20T04:24:53;0.73;;;0.45;;
84113;SDS011;74483;48.846;2.358;2023-12-20T04:27:18;0.93;;;0.60;;
84113;SDS011;74483;48.846;2.358;2023-12-20T04:29:44;1.13;;;0.50;;
84113;SDS011;74483;48.846;2.358;2023-12-20T04:32:09;0.75;;;0.57;;
84113;SDS011;74483;48.846;2.358;2023-12-20T04:34:35;0.57;;;0.47;;
84113;SDS011;74483;48.846;2.358;2023-12-20T04:37:01;0.98;;;0.68;;
84113;SDS011;74483;48.846;2.358;2023-12-20T04:39:27;0.68;;;0.50;;
84113;SDS011;74483;48.846;2.358;2023-12-20T04:41:52;0.80;;;0.60;;
84113;SDS011;74483;48.846;2.358;2023-12-20T04:44:18;1.25;;;0.60;;
84113;SDS011;74483;48.846;2.358;2023-12-20T04:46:43;1.15;;;0.52;;
84113;SDS011;74483;48.846;2.358;2023-12-20T04:49:09;0.63;;;0.60;;
84113;SDS011;74483;48.846;2.358;2023-12-20T04:51:35;1.02;;;0.40;;
84113;SDS011;74483;48.846;2.358;2023-12-20T04:54:01;0.52;;;0.40;;
84113;SDS011;74483;48.846;2.358;2023-12-20T04:56:27;0.80;;;0.50;;
84113;SDS011;74483;48.846;2.358;2023-12-20T04:58:52;0.75;;;0.40;;
84113;SDS011;74483;48.846;2.358;2023-12-20T05:01:18;1.17;;;0.50;;
84113;SDS011;74483;48.846;2.358;2023-12-20T05:03:43;0.77;;;0.43;;
84113;SDS011;74483;48.846;2.358;2023-12-20T05:06:09;0.90;;;0.40;;
84113;SDS011;74483;48.846;2.358;2023-12-20T05:08:35;0.90;;;0.50;;
84113;SDS011;74483;48.846;2.358;2023-12-20T05:11:00;0.60;;;0.40;;
84113;SDS011;74483;48.846;2.358;2023-12-20T05:13:26;0.85;;;0.43;;
84113;SDS011;74483;48.846;2.358;2023-12-20T05:15:52;1.08;;;0.47;;
84113;SDS011;74483;48.846;2.358;2023-12-20T05:18:17;1.05;;;0.55;;
84113;SDS011;74483;48.846;2.358;2023-12-20T05:20:43;0.70;;;0.40;;
84113;SDS011;74483;48.846;2.358;2023-12-20T05:23:08;0.90;;;0.47;;
84113;SDS011;74483;48.846;2.358;2023-12-20T05:25:34;0.50;;;0.40;;
84113;SDS011;74483;48.846;2.358;2023-12-20T05:28:00;0.93;;;0.45;;
84113;SDS011;74483;48.846;2.358;2023-12-20T05:30:25;0.80;;;0.50;;
84113;SDS011;74483;48.846;2.358;2023-12-20T05:32:51;0.75;;;0.45;;
84113;SDS011;74483;48.846;2.358;2023-12-20T05:35:17;1.05;;;0.45;;
84113;SDS011;74483;48.846;2.358;2023-12-20T05:37:42;0.65;;;0.50;;
84113;SDS011;74483;48.846;2.358;2023-12-20T05:40:08;1.30;;;0.50;;
84113;SDS011;74483;48.846;2.358;2023-12-20T05:42:37;0.57;;;0.50;;
84113;SDS011;74483;48.846;2.358;2023-12-20T05:45:03;1.35;;;0.60;;
84113;SDS011;74483;48.846;2.358;2023-12-20T05:47:29;0.80;;;0.50;;
84113;SDS011;74483;48.846;2.358;2023-12-20T05:49:55;0.95;;;0.60;;
84113;SDS011;74483;48.846;2.358;2023-12-20T05:52:20;0.60;;;0.50;;
84113;SDS011;74483;48.846;2.358;2023-12-20T05:54:46;0.47;;;0.40;;
84113;SDS011;74483;48.846;2.358;2023-12-20T05:57:12;2.33;;;0.60;;
84113;SDS011;74483;48.846;2.358;2023-12-20T05:59:38;1.33;;;0.50;;
84113;SDS011;74483;48.846;2.358;2023-12-20T06:02:03;1.55;;;0.50;;
84113;SDS011;74483;48.846;2.358;2023-12-20T06:04:30;0.80;;;0.65;;
84113;SDS011;74483;48.846;2.358;2023-12-20T06:06:55;1.67;;;0.57;;
84113;SDS011;74483;48.846;2.358;2023-12-20T06:09:21;1.05;;;0.50;;
84113;SDS011;74483;48.846;2.358;2023-12-20T06:11:46;0.50;;;0.50;;
84113;SDS011;74483;48.846;2.358;2023-12-20T06:14:12;0.85;;;0.60;;
84113;SDS011;74483;48.846;2.358;2023-12-20T06:16:38;0.73;;;0.50;;
84113;SDS011;74483;48.846;2.358;2023-12-20T06:19:03;0.50;;;0.43;;
84113;SDS011;74483;48.846;2.358;2023-12-20T06:21:29;0.60;;;0.50;;
84113;SDS011;74483;48.846;2.358;2023-12-20T06:23:54;1.02;;;0.60;;
84113;SDS011;74483;48.846;2.358;2023-12-20T06:26:20;1.08;;;0.68;;
84113;SDS011;74483;48.846;2.358;2023-12-20T06:28:46;1.50;;;0.50;;
84113;SDS011;74483;48.846;2.358;2023-12-20T06:31:11;1.20;;;0.60;;
84113;SDS011;74483;48.846;2.358;2023-12-20T06:33:37;1.63;;;0.60;;
84113;SDS011;74483;48.846;2.358;2023-12-20T06:36:05;1.40;;;0.50;;
84113;SDS011;74483;48.846;2.358;2023-12-20T06:38:31;1.02;;;0.50;;
84113;SDS011;74483;48.846;2.358;2023-12-20T06:40:56;1.13;;;0.55;;
84113;SDS011;74483;48.846;2.358;2023-12-20T06:43:23;1.45;;;0.60;;
84113;SDS011;74483;48.846;2.358;2023-12-20T06:45:49;0.60;;;0.45;;
84113;SDS011;74483;48.846;2.358;2023-12-20T06:48:15;0.93;;;0.60;;
84113;SDS011;74483;48.846;2.358;2023-12-20T06:50:41;1.33;;;0.45;;
84113;SDS011;74483;48.846;2.358;2023-12-20T06:53:07;1.17;;;0.60;;
84113;SDS011;74483;48.846;2.358;2023-12-20T06:55:33;0.73;;;0.40;;
84113;SDS011;74483;48.846;2.358;2023-12-20T06:58:01;1.00;;;0.50;;
84113;SDS011;74483;48.846;2.358;2023-12-20T07:00:27;0.70;;;0.50;;
84113;SDS011;74483;48.846;2.358;2023-12-20T07:02:53;1.35;;;0.60;;
84113;SDS011;74483;48.846;2.358;2023-12-20T07:05:19;2.33;;;0.52;;
84113;SDS011;74483;48.846;2.358;2023-12-20T07:07:45;2.00;;;0.60;;
84113;SDS011;74483;48.846;2.358;2023-12-20T07:10:12;0.60;;;0.50;;
84113;SDS011;74483;48.846;2.358;2023-12-20T07:12:38;1.73;;;0.50;;
84113;SDS011;74483;48.846;2.358;2023-12-20T07:15:04;1.48;;;0.68;;
84113;SDS011;74483;48.846;2.358;2023-12-20T07:17:31;1.40;;;0.57;;
84113;SDS011;74483;48.846;2.358;2023-12-20T07:19:58;0.52;;;0.50;;
84113;SDS011;74483;48.846;2.358;2023-12-20T07:22:24;0.98;;;0.60;;
84113;SDS011;74483;48.846;2.358;2023-12-20T07:24:49;0.70;;;0.60;;
84113;SDS011;74483;48.846;2.358;2023-12-20T07:27:17;0.73;;;0.50;;
84113;SDS011;74483;48.846;2.358;2023-12-20T07:29:42;1.20;;;0.60;;
84113;SDS011;74483;48.846;2.358;2023-12-20T07:32:08;0.93;;;0.50;;
84113;SDS011;74483;48.846;2.358;2023-12-20T07:34:34;1.13;;;0.60;;
84113;SDS011;74483;48.846;2.358;2023-12-20T07:36:59;1.23;;;0.68;;
84113;SDS011;74483;48.846;2.358;2023-12-20T07:39:25;1.55;;;0.70;;
84113;SDS011;74483;48.846;2.358;2023-12-20T07:41:50;0.60;;;0.50;;
84113;SDS011;74483;48.846;2.358;2023-12-20T07:44:16;1.10;;;0.60;;
84113;SDS011;74483;48.846;2.358;2023-12-20T07:46:41;1.80;;;0.60;;
84113;SDS011;74483;48.846;2.358;2023-12-20T07:49:07;1.35;;;0.60;;
84113;SDS011;74483;48.846;2.358;2023-12-20T07:51:33;1.30;;;0.57;;
84113;SDS011;74483;48.846;2.358;2023-12-20T07:53:59;0.88;;;0.57;;
84113;SDS011;74483;48.846;2.358;2023-12-20T07:56:24;2.03;;;0.60;;
84113;SDS011;74483;48.846;2.358;2023-12-20T07:58:50;0.93;;;0.50;;
84113;SDS011;74483;48.846;2.358;2023-12-20T08:01:16;0.60;;;0.60;;
84113;SDS011;74483;48.846;2.358;2023-12-20T08:03:43;0.60;;;0.50;;
84113;SDS011;74483;48.846;2.358;2023-12-20T08:06:09;0.85;;;0.70;;
84113;SDS011;74483;48.846;2.358;2023-12-20T08:08:34;1.67;;;0.60;;
84113;SDS011;74483;48.846;2.358;2023-12-20T08:11:00;1.33;;;0.63;;
84113;SDS011;74483;48.846;2.358;2023-12-20T08:13:26;1.05;;;0.60;;
84113;SDS011;74483;48.846;2.358;2023-12-20T08:15:52;1.20;;;0.60;;
84113;SDS011;74483;48.846;2.358;2023-12-20T08:18:18;1.17;;;0.70;;
84113;SDS011;74483;48.846;2.358;2023-12-20T08:20:44;0.90;;;0.50;;
84113;SDS011;74483;48.846;2.358;2023-12-20T08:23:09;1.23;;;0.60;;
84113;SDS011;74483;48.846;2.358;2023-12-20T08:25:35;1.35;;;0.70;;
84113;SDS011;74483;48.846;2.358;2023-12-20T08:28:01;1.23;;;0.70;;
84113;SDS011;74483;48.846;2.358;2023-12-20T08:30:28;1.40;;;0.70;;
84113;SDS011;74483;48.846;2.358;2023-12-20T08:32:54;1.42;;;0.60;;
84113;SDS011;74483;48.846;2.358;2023-12-20T08:35:20;1.65;;;0.88;;
84113;SDS011;74483;48.846;2.358;2023-12-20T08:37:46;1.05;;;0.60;;
84113;SDS011;74483;48.846;2.358;2023-12-20T08:40:11;0.80;;;0.60;;
84113;SDS011;74483;48.846;2.358;2023-12-20T08:42:37;1.65;;;0.75;;
84113;SDS011;74483;48.846;2.358;2023-12-20T08:45:03;1.73;;;0.70;;
84113;SDS011;74483;48.846;2.358;2023-12-20T08:47:29;1.25;;;0.80;;
84113;SDS011;74483;48.846;2.358;2023-12-20T08:49:55;0.75;;;0.50;;
84113;SDS011;74483;48.846;2.358;2023-12-20T08:52:21;1.23;;;0.63;;
84113;SDS011;74483;48.846;2.358;2023-12-20T08:54:48;1.42;;;0.70;;
84113;SDS011;74483;48.846;2.358;2023-12-20T08:57:16;0.77;;;0.60;;
84113;SDS011;74483;48.846;2.358;2023-12-20T08:59:46;0.82;;;0.57;;
84113;SDS011;74483;48.846;2.358;2023-12-20T09:02:13;1.02;;;0.63;;
84113;SDS011;74483;48.846;2.358;2023-12-20T09:04:39;1.35;;;0.70;;
84113;SDS011;74483;48.846;2.358;2023-12-20T09:07:05;1.30;;;0.80;;
84113;SDS011;74483;48.846;2.358;2023-12-20T09:09:30;1.02;;;0.73;;
84113;SDS011;74483;48.846;2.358;2023-12-20T09:11:57;1.38;;;0.70;;
84113;SDS011;74483;48.846;2.358;2023-12-20T09:14:23;1.40;;;0.50;;
84113;SDS011;74483;48.846;2.358;2023-12-20T09:16:49;0.90;;;0.70;;
84113;SDS011;74483;48.846;2.358;2023-12-20T09:19:16;1.75;;;0.80;;
84113;SDS011;74483;48.846;2.358;2023-12-20T09:21:42;1.70;;;0.60;;
84113;SDS011;74483;48.846;2.358;2023-12-20T09:24:08;1.23;;;0.73;;
84113;SDS011;74483;48.846;2.358;2023-12-20T09:26:34;0.80;;;0.70;;
84113;SDS011;74483;48.846;2.358;2023-12-20T09:29:00;1.33;;;0.80;;
84113;SDS011;74483;48.846;2.358;2023-12-20T09:31:25;1.27;;;0.80;;
84113;SDS011;74483;48.846;2.358;2023-12-20T09:33:52;2.10;;;0.80;;
84113;SDS011;74483;48.846;2.358;2023-12-20T09:36:17;1.42;;;0.75;;
84113;SDS011;74483;48.846;2.358;2023-12-20T09:38:43;2.67;;;0.80;;
84113;SDS011;74483;48.846;2.358;2023-12-20T09:41:08;2.25;;;0.80;;
84113;SDS011;74483;48.846;2.358;2023-12-20T09:43:37;0.90;;;0.70;;
84113;SDS011;74483;48.846;2.358;2023-12-20T09:46:05;1.02;;;0.70;;
84113;SDS011;74483;48.846;2.358;2023-12-20T09:48:35;0.85;;;0.60;;
84113;SDS011;74483;48.846;2.358;2023-12-20T09:51:02;1.52;;;0.80;;
84113;SDS011;74483;48.846;2.358;2023-12-20T09:53:27;0.80;;;0.70;;
84113;SDS011;74483;48.846;2.358;2023-12-20T09:55:56;1.67;;;0.70;;
84113;SDS011;74483;48.846;2.358;2023-12-20T09:58:26;0.95;;;0.70;;
84113;SDS011;74483;48.846;2.358;2023-12-20T10:00:52;1.02;;;0.80;;
84113;SDS011;74483;48.846;2.358;2023-12-20T10:03:19;2.08;;;0.80;;
84113;SDS011;74483;48.846;2.358;2023-12-20T10:05:49;1.75;;;0.88;;
84113;SDS011;74483;48.846;2.358;2023-12-20T10:08:21;1.00;;;0.70;;
84113;SDS011;74483;48.846;2.358;2023-12-20T10:10:47;1.00;;;0.63;;
84113;SDS011;74483;48.846;2.358;2023-12-20T10:13:13;2.10;;;0.70;;
84113;SDS011;74483;48.846;2.358;2023-12-20T10:15:40;1.80;;;0.95;;
84113;SDS011;74483;48.846;2.358;2023-12-20T10:18:06;1.00;;;0.80;;
84113;SDS011;74483;48.846;2.358;2023-12-20T10:20:32;1.10;;;0.80;;
84113;SDS011;74483;48.846;2.358;2023-12-20T10:22:58;1.80;;;0.68;;
84113;SDS011;74483;48.846;2.358;2023-12-20T10:25:25;1.58;;;0.90;;
84113;SDS011;74483;48.846;2.358;2023-12-20T10:30:37;1.73;;;0.70;;
84113;SDS011;74483;48.846;2.358;2023-12-20T10:33:04;1.25;;;0.70;;
84113;SDS011;74483;48.846;2.358;2023-12-20T10:35:31;1.40;;;0.70;;
84113;SDS011;74483;48.846;2.358;2023-12-20T10:37:57;1.10;;;0.70;;
84113;SDS011;74483;48.846;2.358;2023-12-20T10:40:28;1.40;;;0.80;;
84113;SDS011;74483;48.846;2.358;2023-12-20T10:42:54;1.10;;;0.73;;
84113;SDS011;74483;48.846;2.358;2023-12-20T10:45:21;0.77;;;0.57;;
84113;SDS011;74483;48.846;2.358;2023-12-20T10:47:48;2.00;;;1.13;;
84113;SDS011;74483;48.846;2.358;2023-12-20T10:50:15;1.85;;;1.00;;
84113;SDS011;74483;48.846;2.358;2023-12-20T10:52:41;2.05;;;0.98;;
84113;SDS011;74483;48.846;2.358;2023-12-20T10:55:09;1.58;;;0.80;;
84113;SDS011;74483;48.846;2.358;2023-12-20T10:57:35;1.35;;;0.80;;
84113;SDS011;74483;48.846;2.358;2023-12-20T11:00:02;1.42;;;0.70;;
84113;SDS011;74483;48.846;2.358;2023-12-20T11:02:32;1.42;;;0.70;;
84113;SDS011;74483;48.846;2.358;2023-12-20T11:07:47;1.10;;;0.80;;
84113;SDS011;74483;48.846;2.358;2023-12-20T11:10:23;1.05;;;0.70;;
84113;SDS011;74483;48.846;2.358;2023-12-20T11:13:12;1.35;;;0.80;;
84113;SDS011;74483;48.846;2.358;2023-12-20T11:15:45;1.80;;;0.98;;
84113;SDS011;74483;48.846;2.358;2023-12-20T11:18:11;0.75;;;0.65;;
84113;SDS011;74483;48.846;2.358;2023-12-20T11:23:04;2.03;;;1.00;;
84113;SDS011;74483;48.846;2.358;2023-12-20T11:25:35;1.55;;;0.88;;
84113;SDS011;74483;48.846;2.358;2023-12-20T11:28:16;1.10;;;0.70;;
84113;SDS011;74483;48.846;2.358;2023-12-20T11:30:46;1.58;;;0.95;;
84113;SDS011;74483;48.846;2.358;2023-12-20T11:33:13;2.90;;;1.08;;
84113;SDS011;74483;48.846;2.358;2023-12-20T11:35:40;1.42;;;0.70;;
84113;SDS011;74483;48.846;2.358;2023-12-20T11:38:10;1.42;;;0.80;;
84113;SDS011;74483;48.846;2.358;2023-12-20T11:40:36;2.63;;;1.25;;
84113;SDS011;74483;48.846;2.358;2023-12-20T11:43:02;2.45;;;1.05;;
84113;SDS011;74483;48.846;2.358;2023-12-20T11:45:29;1.30;;;0.88;;
84113;SDS011;74483;48.846;2.358;2023-12-20T11:47:56;1.33;;;0.73;;
84113;SDS011;74483;48.846;2.358;2023-12-20T11:50:22;1.48;;;0.90;;
84113;SDS011;74483;48.846;2.358;2023-12-20T11:52:49;1.23;;;0.98;;
84113;SDS011;74483;48.846;2.358;2023-12-20T11:55:16;1.13;;;0.80;;
84113;SDS011;74483;48.846;2.358;2023-12-20T11:57:42;1.33;;;0.90;;
84113;SDS011;74483;48.846;2.358;2023-12-20T12:00:09;1.92;;;0.93;;
84113;SDS011;74483;48.846;2.358;2023-12-20T12:02:35;1.50;;;0.90;;
84113;SDS011;74483;48.846;2.358;2023-12-20T12:05:00;1.75;;;0.90;;
84113;SDS011;74483;48.846;2.358;2023-12-20T12:07:27;1.65;;;0.90;;
84113;SDS011;74483;48.846;2.358;2023-12-20T12:09:52;1.40;;;0.77;;
84113;SDS011;74483;48.846;2.358;2023-12-20T12:12:18;1.05;;;0.80;;
84113;SDS011;74483;48.846;2.358;2023-12-20T12:14:45;2.15;;;0.90;;
84113;SDS011;74483;48.846;2.358;2023-12-20T12:17:11;1.65;;;0.82;;
84113;SDS011;74483;48.846;2.358;2023-12-20T12:19:38;1.77;;;0.90;;
84113;SDS011;74483;48.846;2.358;2023-12-20T12:22:07;1.77;;;0.80;;
84113;SDS011;74483;48.846;2.358;2023-12-20T12:24:36;1.23;;;0.82;;
84113;SDS011;74483;48.846;2.358;2023-12-20T12:27:02;2.15;;;0.88;;
84113;SDS011;74483;48.846;2.358;2023-12-20T12:29:28;1.30;;;0.80;;
84113;SDS011;74483;48.846;2.358;2023-12-20T12:31:54;1.60;;;0.70;;
84113;SDS011;74483;48.846;2.358;2023-12-20T12:34:20;1.02;;;0.80;;
84113;SDS011;74483;48.846;2.358;2023-12-20T12:36:45;1.73;;;0.82;;
84113;SDS011;74483;48.846;2.358;2023-12-20T12:39:13;1.73;;;0.93;;
84113;SDS011;74483;48.846;2.358;2023-12-20T12:41:41;0.88;;;0.80;;
84113;SDS011;74483;48.846;2.358;2023-12-20T12:44:07;1.55;;;0.90;;
84113;SDS011;74483;48.846;2.358;2023-12-20T12:46:33;1.27;;;0.80;;
84113;SDS011;74483;48.846;2.358;2023-12-20T12:48:59;1.45;;;0.77;;
84113;SDS011;74483;48.846;2.358;2023-12-20T12:51:25;1.42;;;0.80;;
84113;SDS011;74483;48.846;2.358;2023-12-20T12:53:50;1.95;;;1.00;;
84113;SDS011;74483;48.846;2.358;2023-12-20T12:56:16;1.55;;;0.93;;
84113;SDS011;74483;48.846;2.358;2023-12-20T12:58:42;2.88;;;1.35;;
84113;SDS011;74483;48.846;2.358;2023-12-20T13:01:08;2.58;;;1.20;;
84113;SDS011;74483;48.846;2.358;2023-12-20T13:03:34;2.05;;;1.00;;
84113;SDS011;74483;48.846;2.358;2023-12-20T13:06:00;1.92;;;1.13;;
84113;SDS011;74483;48.846;2.358;2023-12-20T13:08:26;4.20;;;1.33;;
84113;SDS011;74483;48.846;2.358;2023-12-20T13:10:52;3.28;;;1.95;;
84113;SDS011;74483;48.846;2.358;2023-12-20T13:13:18;4.00;;;1.75;;
84113;SDS011;74483;48.846;2.358;2023-12-20T13:15:43;2.60;;;1.40;;
84113;SDS011;74483;48.846;2.358;2023-12-20T13:18:16;2.40;;;1.50;;
84113;SDS011;74483;48.846;2.358;2023-12-20T13:20:43;4.60;;;1.90;;
84113;SDS011;74483;48.846;2.358;2023-12-20T13:23:09;2.08;;;1.38;;
84113;SDS011;74483;48.846;2.358;2023-12-20T13:25:35;2.55;;;1.40;;
84113;SDS011;74483;48.846;2.358;2023-12-20T13:28:01;2.88;;;1.30;;
84113;SDS011;74483;48.846;2.358;2023-12-20T13:30:27;2.33;;;1.30;;
84113;SDS011;74483;48.846;2.358;2023-12-20T13:32:53;5.25;;;1.30;;
84113;SDS011;74483;48.846;2.358;2023-12-20T13:35:19;3.88;;;1.75;;
84113;SDS011;74483;48.846;2.358;2023-12-20T13:37:45;2.75;;;1.35;;
84113;SDS011;74483;48.846;2.358;2023-12-20T13:40:11;3.55;;;1.40;;
84113;SDS011;74483;48.846;2.358;2023-12-20T13:42:37;10.48;;;1.70;;
84113;SDS011;74483;48.846;2.358;2023-12-20T13:45:03;4.55;;;1.55;;
84113;SDS011;74483;48.846;2.358;2023-12-20T13:47:30;4.57;;;1.52;;
84113;SDS011;74483;48.846;2.358;2023-12-20T13:49:56;3.88;;;1.38;;
84113;SDS011;74483;48.846;2.358;2023-12-20T13:52:21;4.28;;;1.50;;
84113;SDS011;74483;48.846;2.358;2023-12-20T13:54:47;2.55;;;1.23;;
84113;SDS011;74483;48.846;2.358;2023-12-20T13:57:12;2.28;;;1.33;;
84113;SDS011;74483;48.846;2.358;2023-12-20T13:59:38;4.50;;;1.40;;
84113;SDS011;74483;48.846;2.358;2023-12-20T14:02:04;4.63;;;1.40;;
84113;SDS011;74483;48.846;2.358;2023-12-20T14:04:30;2.33;;;1.25;;
84113;SDS011;74483;48.846;2.358;2023-12-20T14:06:56;3.20;;;1.40;;
84113;SDS011;74483;48.846;2.358;2023-12-20T14:09:22;1.95;;;1.10;;
84113;SDS011;74483;48.846;2.358;2023-12-20T14:11:48;2.22;;;1.10;;
84113;SDS011;74483;48.846;2.358;2023-12-20T14:14:13;2.53;;;1.20;;
84113;SDS011;74483;48.846;2.358;2023-12-20T14:16:39;2.63;;;1.05;;
84113;SDS011;74483;48.846;2.358;2023-12-20T14:19:05;2.50;;;1.25;;
84113;SDS011;74483;48.846;2.358;2023-12-20T14:21:33;2.75;;;1.10;;
84113;SDS011;74483;48.846;2.358;2023-12-20T14:23:58;2.03;;;0.90;;
84113;SDS011;74483;48.846;2.358;2023-12-20T14:26:25;2.28;;;1.00;;
84113;SDS011;74483;48.846;2.358;2023-12-20T14:28:52;1.92;;;0.95;;
84113;SDS011;74483;48.846;2.358;2023-12-20T14:31:18;2.30;;;1.02;;
84113;SDS011;74483;48.846;2.358;2023-12-20T14:33:44;1.73;;;0.90;;
84113;SDS011;74483;48.846;2.358;2023-12-20T14:36:11;1.70;;;0.80;;
84113;SDS011;74483;48.846;2.358;2023-12-20T14:38:36;1.83;;;1.00;;
84113;SDS011;74483;48.846;2.358;2023-12-20T14:41:02;1.92;;;0.90;;
84113;SDS011;74483;48.846;2.358;2023-12-20T14:43:30;1.90;;;0.95;;
84113;SDS011;74483;48.846;2.358;2023-12-20T14:45:56;1.70;;;1.00;;
84113;SDS011;74483;48.846;2.358;2023-12-20T14:48:22;2.38;;;0.88;;
84113;SDS011;74483;48.846;2.358;2023-12-20T14:50:47;1.38;;;0.73;;